createdAt,value
2023-04-14T00:00:21.388Z,83.99
2023-04-14T00:03:07.840Z,84.88
2023-04-14T00:05:54.101Z,84.93
2023-04-14T00:08:40.064Z,85.46
2023-04-14T00:11:27.356Z,84.93
2023-04-14T00:17:15.883Z,84.47
2023-04-14T00:20:02.190Z,84.39
2023-04-14T00:22:48.347Z,84.08
2023-04-14T00:25:41.306Z,83.72
2023-04-14T00:31:48.179Z,81.83
2023-04-14T00:34:40.578Z,81.91
2023-04-14T00:37:38.005Z,82.66
2023-04-14T00:40:30.691Z,82.17
2023-04-14T00:43:23.566Z,82.28
2023-04-14T00:46:17.756Z,83.47
2023-04-14T00:49:11.754Z,82.96
2023-04-14T00:52:04.602Z,83.43
2023-04-14T00:54:57.401Z,84.39
2023-04-14T00:57:50.921Z,84.49
2023-04-14T01:04:04.979Z,83.48
2023-04-14T01:06:59.064Z,83.92
2023-04-14T01:09:52.290Z,84.46
2023-04-14T01:13:09.763Z,85.80
2023-04-14T01:16:05.344Z,85.98
2023-04-14T01:19:02.477Z,85.83
2023-04-14T01:22:22.135Z,84.41
2023-04-14T01:25:33.247Z,83.76
2023-04-14T01:28:38.611Z,83.60
2023-04-14T01:31:35.855Z,82.69
2023-04-14T01:37:45.622Z,82.88
2023-04-14T01:40:39.927Z,83.22
2023-04-14T01:44:09.692Z,82.42
2023-04-14T01:47:06.877Z,82.84
2023-04-14T01:50:00.547Z,84.15
2023-04-14T01:52:54.923Z,82.71
2023-04-14T01:55:50.214Z,84.08
2023-04-14T01:58:43.236Z,85.87
2023-04-14T02:01:35.873Z,84.73
2023-04-14T02:07:51.297Z,85.37
2023-04-14T02:14:07.262Z,86.20
2023-04-14T02:20:05.432Z,86.23
2023-04-14T02:22:59.956Z,86.01
2023-04-14T02:25:55.566Z,85.65
2023-04-14T02:28:50.923Z,85.24
2023-04-14T02:31:44.869Z,85.88
2023-04-14T02:34:48.521Z,85.56
2023-04-14T02:37:42.883Z,85.32
2023-04-14T02:43:51.961Z,84.83
2023-04-14T02:50:00.860Z,85.51
2023-04-14T02:56:11.352Z,85.77
2023-04-14T02:59:08.925Z,85.09
2023-04-14T03:02:09.177Z,84.23
2023-04-14T03:08:17.077Z,85.69
2023-04-14T03:11:15.306Z,86.66
2023-04-14T03:14:08.597Z,87.05
2023-04-14T03:17:02.096Z,87.43
2023-04-14T03:19:55.979Z,87.36
2023-04-14T03:22:50.306Z,87.25
2023-04-14T03:28:53.395Z,87.35
2023-04-14T03:31:47.187Z,87.50
2023-04-14T03:34:51.196Z,85.92
2023-04-14T03:37:45.772Z,85.78
2023-04-14T03:40:41.115Z,86.86
2023-04-14T03:43:35.503Z,86.87
2023-04-14T03:46:32.362Z,86.66
2023-04-14T03:49:26.905Z,86.76
2023-04-14T03:55:33.588Z,86.13
2023-04-14T04:01:41.788Z,86.07
2023-04-14T04:04:36.265Z,86.52
2023-04-14T04:07:29.364Z,86.75
2023-04-14T04:10:22.896Z,87.29
2023-04-14T04:13:17.481Z,86.98
2023-04-14T04:16:12.003Z,86.93
2023-04-14T04:19:07.367Z,86.89
2023-04-14T04:22:01.357Z,85.78
2023-04-14T04:24:55.775Z,85.71
2023-04-14T04:27:53.418Z,84.74
2023-04-14T04:30:46.328Z,85.10
2023-04-14T04:33:39.718Z,84.13
2023-04-14T04:36:34.506Z,84.50
2023-04-14T04:39:27.620Z,84.09
2023-04-14T04:42:48.932Z,84.97
2023-04-14T04:45:51.772Z,85.15
2023-04-14T04:49:09.683Z,84.52
2023-04-14T04:52:04.802Z,85.21
2023-04-14T04:55:14.893Z,85.11
2023-04-14T04:58:04.787Z,85.75
2023-04-14T05:04:43.756Z,86.31
2023-04-14T05:07:37.679Z,86.96
2023-04-14T05:13:49.941Z,86.69
2023-04-14T05:20:05.085Z,86.20
2023-04-14T05:22:59.307Z,85.67
2023-04-14T05:25:51.738Z,86.06
2023-04-14T05:28:44.556Z,86.60
2023-04-14T05:31:37.704Z,86.46
2023-04-14T05:34:30.652Z,87.19
2023-04-14T05:37:24.083Z,88.84
2023-04-14T05:40:18.031Z,89.93
2023-04-14T05:43:10.907Z,90.50
2023-04-14T05:46:03.594Z,90.54
2023-04-14T05:52:42.219Z,88.14
2023-04-14T05:56:11.925Z,86.77
2023-04-14T05:59:05.868Z,85.61
2023-04-14T06:02:12.750Z,84.10
2023-04-14T06:05:09.498Z,83.73
2023-04-14T06:11:23.154Z,77.47
2023-04-14T06:18:02.785Z,70.71
2023-04-14T06:20:55.501Z,68.59
2023-04-14T06:23:48.466Z,66.13
2023-04-14T06:29:46.448Z,61.16
2023-04-14T06:32:38.729Z,59.79
2023-04-14T06:35:34.266Z,57.49
2023-04-14T06:41:55.461Z,48.93
2023-04-14T06:45:25.808Z,44.29
2023-04-14T06:48:18.854Z,42.97
2023-04-14T06:51:13.879Z,38.69
2023-04-14T06:54:29.739Z,37.74
2023-04-14T06:57:17.492Z,34.27
2023-04-14T07:03:15.645Z,33.12
2023-04-14T07:06:11.503Z,31.54
2023-04-14T07:09:06.070Z,31.64
2023-04-14T07:11:58.739Z,31.23
2023-04-14T07:14:52.343Z,29.03
2023-04-14T07:17:44.581Z,28.00
2023-04-14T07:20:37.925Z,27.32
2023-04-14T07:23:30.943Z,27.17
2023-04-14T07:29:45.979Z,26.92
2023-04-14T07:32:38.798Z,27.78
2023-04-14T07:35:31.703Z,26.69
2023-04-14T07:38:26.289Z,26.65
2023-04-14T07:41:19.151Z,26.72
2023-04-14T07:44:11.490Z,26.82
2023-04-14T07:50:14.988Z,27.58
2023-04-14T07:53:07.782Z,26.58
2023-04-14T07:59:12.964Z,24.99
2023-04-14T08:02:06.017Z,24.38
2023-04-14T08:04:58.785Z,23.68
2023-04-14T08:07:52.259Z,24.24
2023-04-14T08:10:44.812Z,24.01
2023-04-14T08:13:37.815Z,23.92
2023-04-14T08:16:31.897Z,23.09
2023-04-14T08:19:24.865Z,24.53
2023-04-14T08:22:18.372Z,24.36
2023-04-14T08:25:23.555Z,24.23
2023-04-14T08:28:17.130Z,23.25
2023-04-14T08:34:31.227Z,25.74
2023-04-14T08:40:48.716Z,26.63
2023-04-14T08:43:41.798Z,26.99
2023-04-14T08:46:35.686Z,26.94
2023-04-14T08:49:33.437Z,28.71
2023-04-14T08:52:28.659Z,29.21
2023-04-14T08:55:21.927Z,29.59
2023-04-14T08:58:16.064Z,30.83
2023-04-14T09:01:09.475Z,30.69
2023-04-14T09:04:04.057Z,32.16
2023-04-14T09:10:18.474Z,34.89
2023-04-14T09:16:33.746Z,33.58
2023-04-14T09:22:34.216Z,33.95
2023-04-14T09:28:43.091Z,36.54
2023-04-14T09:31:37.875Z,38.75
2023-04-14T09:34:30.823Z,37.18
2023-04-14T09:37:23.977Z,36.58
2023-04-14T09:40:28.600Z,36.30
2023-04-14T09:43:26.736Z,36.20
2023-04-14T09:46:20.236Z,36.31
2023-04-14T09:49:14.761Z,34.49
2023-04-14T09:55:19.921Z,31.57
2023-04-14T09:58:12.946Z,31.38
2023-04-14T10:01:13.583Z,33.06
2023-04-14T10:04:24.100Z,31.62
2023-04-14T10:07:19.757Z,35.42
2023-04-14T10:10:14.116Z,36.07
2023-04-14T10:13:07.352Z,34.52
2023-04-14T10:15:59.691Z,34.92
2023-04-14T10:18:53.083Z,35.00
2023-04-14T10:21:47.149Z,33.29
2023-04-14T10:24:39.567Z,31.33
2023-04-14T10:27:33.898Z,32.62
2023-04-14T10:30:26.953Z,33.56
2023-04-14T10:33:12.772Z,32.08
2023-04-14T10:36:01.754Z,29.11
2023-04-14T10:38:49.578Z,30.55
2023-04-14T10:45:03.205Z,30.41
2023-04-14T10:47:50.727Z,30.86
2023-04-14T10:50:47.527Z,29.78
2023-04-14T10:53:46.158Z,28.40
2023-04-14T10:59:47.393Z,26.40
2023-04-14T11:02:35.446Z,27.25
2023-04-14T11:05:22.487Z,26.27
2023-04-14T11:08:13.598Z,28.18
2023-04-14T11:11:07.802Z,28.10
2023-04-14T11:14:11.746Z,29.13
2023-04-14T11:17:06.272Z,27.99
2023-04-14T11:19:58.839Z,31.08
2023-04-14T11:26:06.732Z,29.64
2023-04-14T11:32:03.074Z,27.69
2023-04-14T11:34:56.692Z,27.21
2023-04-14T11:37:49.916Z,29.22
2023-04-14T11:40:42.530Z,29.18
2023-04-14T11:43:35.571Z,30.01
2023-04-14T11:46:28.886Z,30.11
2023-04-14T11:49:33.416Z,29.21
2023-04-14T11:52:26.985Z,31.33
2023-04-14T11:55:19.800Z,30.17
2023-04-14T11:58:13.670Z,32.31
2023-04-14T12:01:07.093Z,33.73
2023-04-14T12:04:00.197Z,30.57
2023-04-14T12:07:29.901Z,32.00
2023-04-14T12:10:24.892Z,33.00
2023-04-14T12:13:17.699Z,32.09
2023-04-14T12:16:11.227Z,30.12
2023-04-14T12:19:04.593Z,29.25
2023-04-14T12:21:57.939Z,28.42
2023-04-14T12:24:50.782Z,28.55
2023-04-14T12:27:51.720Z,28.04
2023-04-14T12:30:52.054Z,28.63
2023-04-14T12:34:00.203Z,29.56
2023-04-14T12:36:53.237Z,27.56
2023-04-14T12:43:06.791Z,27.47
2023-04-14T12:45:59.923Z,27.73
2023-04-14T12:52:04.511Z,27.62
2023-04-14T12:54:57.080Z,27.04
2023-04-14T12:57:52.475Z,26.53
2023-04-14T13:00:46.307Z,25.32
2023-04-14T13:06:48.462Z,24.75
2023-04-14T13:09:42.455Z,26.95
2023-04-14T13:12:34.534Z,24.66
2023-04-14T13:16:10.080Z,25.84
2023-04-14T13:18:41.235Z,24.58
2023-04-14T13:25:02.764Z,23.77
2023-04-14T13:27:55.620Z,26.52
2023-04-14T13:34:08.680Z,25.13
2023-04-14T13:40:48.336Z,24.87
2023-04-14T13:43:41.406Z,24.48
2023-04-14T13:49:49.159Z,26.69
2023-04-14T13:52:41.936Z,24.94
2023-04-14T13:56:03.725Z,26.44
2023-04-14T13:58:56.542Z,26.82
2023-04-14T14:01:48.954Z,25.75
2023-04-14T14:04:41.596Z,27.21
2023-04-14T14:11:12.441Z,28.82
2023-04-14T14:14:41.923Z,31.17
2023-04-14T14:17:36.589Z,31.68
2023-04-14T14:20:57.961Z,30.10
2023-04-14T14:23:50.909Z,32.19
2023-04-14T14:26:45.731Z,31.28
2023-04-14T14:29:38.775Z,30.70
2023-04-14T14:32:31.514Z,30.57
2023-04-14T14:35:23.750Z,30.29
2023-04-14T14:38:16.581Z,29.72
2023-04-14T14:41:09.629Z,26.86
2023-04-14T14:44:04.113Z,27.09
2023-04-14T14:46:57.236Z,27.01
2023-04-14T14:49:59.586Z,27.09
2023-04-14T14:56:22.553Z,27.92
2023-04-14T14:59:30.724Z,26.75
2023-04-14T15:02:25.235Z,26.21
2023-04-14T15:09:03.595Z,26.69
2023-04-14T15:12:14.042Z,25.28
2023-04-14T15:15:04.947Z,25.02
2023-04-14T15:17:59.366Z,26.05
2023-04-14T15:20:53.954Z,25.60
2023-04-14T15:23:46.678Z,24.44
2023-04-14T15:26:39.876Z,25.30
2023-04-14T15:29:32.415Z,25.97
2023-04-14T15:32:26.597Z,27.77
2023-04-14T15:38:35.913Z,25.35
2023-04-14T15:41:31.706Z,24.16
2023-04-14T15:44:26.099Z,26.71
2023-04-14T15:50:31.020Z,27.58
2023-04-14T15:53:23.673Z,27.02
2023-04-14T15:59:24.789Z,26.49
2023-04-14T16:02:18.506Z,26.55
2023-04-14T16:05:11.160Z,28.51
2023-04-14T16:08:04.122Z,28.77
2023-04-14T16:10:56.845Z,28.78
2023-04-14T16:13:49.866Z,30.08
2023-04-14T16:16:46.859Z,30.61
2023-04-14T16:19:39.804Z,29.97
2023-04-14T16:25:50.274Z,30.07
2023-04-14T16:28:43.346Z,29.72
2023-04-14T16:31:35.916Z,30.34
2023-04-14T16:34:30.324Z,32.36
2023-04-14T16:37:25.751Z,32.01
2023-04-14T16:40:19.406Z,31.55
2023-04-14T16:43:13.704Z,32.42
2023-04-14T16:46:07.883Z,32.07
2023-04-14T16:49:00.892Z,32.38
2023-04-14T16:51:56.996Z,33.59
2023-04-14T16:54:49.632Z,33.23
2023-04-14T17:00:46.238Z,33.56
2023-04-14T17:03:39.019Z,33.00
2023-04-14T17:06:31.382Z,32.62
2023-04-14T17:09:25.461Z,32.90
2023-04-14T17:12:18.258Z,33.42
2023-04-14T17:15:11.734Z,34.33
2023-04-14T17:18:04.862Z,34.56
2023-04-14T17:20:58.363Z,35.79
2023-04-14T17:23:51.050Z,39.20
2023-04-14T17:26:44.850Z,41.12
2023-04-14T17:29:37.634Z,43.46
2023-04-14T17:32:30.717Z,44.05
2023-04-14T17:35:23.776Z,44.79
2023-04-14T17:38:16.859Z,46.89
2023-04-14T17:44:31.728Z,50.09
2023-04-14T17:47:24.788Z,50.68
2023-04-14T17:50:18.647Z,51.84
2023-04-14T17:53:13.222Z,53.47
2023-04-14T17:56:06.424Z,54.92
2023-04-14T17:58:59.356Z,56.25
2023-04-14T18:01:53.332Z,56.97
2023-04-14T18:04:47.148Z,57.55
2023-04-14T18:07:39.631Z,58.34
2023-04-14T18:10:32.587Z,59.02
2023-04-14T18:16:54.900Z,60.15
2023-04-14T18:23:35.062Z,61.27
2023-04-14T18:26:27.540Z,61.46
2023-04-14T18:29:20.141Z,62.00
2023-04-14T18:32:14.491Z,62.62
2023-04-14T18:35:07.381Z,63.33
2023-04-14T18:37:59.978Z,63.64
2023-04-14T18:40:53.050Z,64.29
2023-04-14T18:43:45.700Z,65.30
2023-04-14T18:50:01.251Z,66.43
2023-04-14T18:56:04.502Z,67.28
2023-04-14T18:58:57.432Z,67.15
2023-04-14T19:01:50.009Z,67.22
2023-04-14T19:04:42.813Z,67.85
2023-04-14T19:07:37.394Z,68.06
2023-04-14T19:10:30.041Z,68.33
2023-04-14T19:16:36.083Z,69.90
2023-04-14T19:25:35.029Z,70.97
2023-04-14T19:28:27.967Z,71.45
2023-04-14T19:31:21.178Z,71.49
2023-04-14T19:34:13.738Z,72.59
2023-04-14T19:40:20.485Z,74.57
2023-04-14T19:43:14.987Z,75.11
2023-04-14T19:46:45.014Z,75.39
2023-04-14T19:49:37.630Z,75.92
2023-04-14T19:52:30.789Z,77.34
2023-04-14T19:55:24.917Z,77.77
2023-04-14T19:58:20.075Z,76.70
2023-04-14T20:01:13.931Z,76.56
2023-04-14T20:04:12.394Z,76.37
2023-04-14T20:07:05.906Z,76.63
2023-04-14T20:10:01.255Z,76.20
2023-04-14T20:16:14.203Z,75.81
2023-04-14T20:19:06.524Z,74.56
2023-04-14T20:21:59.013Z,74.30
2023-04-14T20:24:51.797Z,73.44
2023-04-14T20:27:45.023Z,73.76
2023-04-14T20:33:57.982Z,73.95
2023-04-14T20:40:18.009Z,73.06
2023-04-14T20:43:10.935Z,72.99
2023-04-14T20:49:17.405Z,72.44
2023-04-14T20:55:13.243Z,72.09
2023-04-14T20:58:06.731Z,73.22
2023-04-14T21:04:22.490Z,74.53
2023-04-14T21:07:15.014Z,74.69
2023-04-14T21:10:11.249Z,74.77
2023-04-14T21:15:28.913Z,74.99
2023-04-14T21:16:16.055Z,75.97
2023-04-14T21:19:09.295Z,75.83
2023-04-14T21:22:02.923Z,75.60
2023-04-14T21:24:55.606Z,74.75
2023-04-14T21:27:49.290Z,75.05
2023-04-14T21:30:41.430Z,75.69
2023-04-14T21:33:33.455Z,76.09
2023-04-14T21:36:25.918Z,76.17
2023-04-14T21:39:21.708Z,76.48
2023-04-14T21:42:14.787Z,76.78
2023-04-14T21:45:08.633Z,76.75
2023-04-14T21:51:22.934Z,75.44
2023-04-14T21:58:04.593Z,76.33
2023-04-14T22:01:14.223Z,76.23
2023-04-14T22:04:04.893Z,77.52
2023-04-14T22:06:58.175Z,78.18
2023-04-14T22:09:50.808Z,78.12
2023-04-14T22:15:58.021Z,78.77
2023-04-14T22:22:03.060Z,79.88
2023-04-14T22:28:08.742Z,79.97
2023-04-14T22:31:03.720Z,79.43
2023-04-14T22:33:57.047Z,78.98
2023-04-14T22:36:50.046Z,78.61
2023-04-14T22:39:42.831Z,78.53
2023-04-14T22:43:08.415Z,78.95
2023-04-14T22:46:00.962Z,80.00
2023-04-14T22:48:56.787Z,81.40
2023-04-14T22:51:49.679Z,81.17
2023-04-14T22:58:04.968Z,81.06
2023-04-14T23:00:57.727Z,81.26
2023-04-14T23:03:52.497Z,82.04
2023-04-14T23:09:59.354Z,82.88
2023-04-14T23:16:04.268Z,83.50
2023-04-14T23:18:56.874Z,83.44
2023-04-14T23:21:50.846Z,83.42
2023-04-14T23:24:43.737Z,83.43
2023-04-14T23:27:37.694Z,83.66
2023-04-14T23:30:55.904Z,83.50
2023-04-14T23:33:50.821Z,83.47
2023-04-14T23:36:37.547Z,83.32
2023-04-14T23:39:23.503Z,83.37
2023-04-14T23:42:09.572Z,82.80
2023-04-14T23:44:57.083Z,82.47
2023-04-14T23:47:43.345Z,82.33
2023-04-14T23:51:01.117Z,82.32
2023-04-14T23:53:35.286Z,82.26
2023-04-14T23:56:22.257Z,82.44
2023-04-14T23:59:19.455Z,82.50
